Time;durP1;ratioP1;P1;durP2;ratioP2;P2;SDS_P1;SDS_P2;PMS_P1;PMS_P2;Temp;Humidity;BMP_temperature;BMP_pressure;BME280_temperature;BME280_humidity;BME280_pressure;Samples;Min_cycle;Max_cycle;Signal;HPM_P1;HPM_P2
2023/10/21 00:02:03;;;;;;;47.75;26.13;;;;;;;;;;5055888;28;20078;-73
2023/10/21 00:04:29;;;;;;;42.08;24.98;;;;;;;;;;5055568;28;20428;-73
2023/10/21 00:06:55;;;;;;;47.55;25.98;;;;;;;;;;5072909;28;20051;-73
2023/10/21 00:09:21;;;;;;;43.63;25.42;;;;;;;;;;5055508;28;20094;-73
2023/10/21 00:11:46;;;;;;;44.80;24.50;;;;;;;;;;5073411;28;20095;-73
2023/10/21 00:14:12;;;;;;;44.47;23.20;;;;;;;;;;5072545;28;20024;-73
2023/10/21 00:16:39;;;;;;;47.30;24.48;;;;;;;;;;5053933;28;20131;-72
2023/10/21 00:19:04;;;;;;;44.90;24.05;;;;;;;;;;5070901;28;20144;-73
2023/10/21 00:21:30;;;;;;;41.58;23.25;;;;;;;;;;5053510;28;20036;-73
2023/10/21 00:23:56;;;;;;;41.65;23.60;;;;;;;;;;5070551;28;20032;-71
2023/10/21 00:26:22;;;;;;;40.78;24.05;;;;;;;;;;5071544;28;20035;-73
2023/10/21 00:28:48;;;;;;;39.63;23.58;;;;;;;;;;5071518;28;20029;-73
2023/10/21 00:31:13;;;;;;;39.25;22.30;;;;;;;;;;5071837;28;20036;-73
2023/10/21 00:33:39;;;;;;;42.65;22.55;;;;;;;;;;5049175;28;20023;-73
2023/10/21 00:36:04;;;;;;;39.50;23.15;;;;;;;;;;5071133;28;20419;-72
2023/10/21 00:38:30;;;;;;;44.33;22.83;;;;;;;;;;5073683;28;20032;-72
2023/10/21 00:40:56;;;;;;;37.28;22.17;;;;;;;;;;5060461;28;20031;-72
2023/10/21 00:43:35;;;;;;;43.42;24.40;;;;;;;;;;5054796;28;20028;-72
2023/10/21 00:46:04;;;;;;;40.55;22.90;;;;;;;;;;5071078;28;20035;-73
2023/10/21 00:48:29;;;;;;;50.58;23.77;;;;;;;;;;5069722;28;20028;-73
2023/10/21 00:50:55;;;;;;;39.20;21.73;;;;;;;;;;5071043;28;20488;-73
2023/10/21 00:53:22;;;;;;;36.45;22.00;;;;;;;;;;5053439;28;20376;-72
2023/10/21 00:55:47;;;;;;;39.40;22.15;;;;;;;;;;5069600;28;20035;-72
2023/10/21 00:58:15;;;;;;;41.92;22.95;;;;;;;;;;5068034;28;20043;-73
2023/10/21 01:00:40;;;;;;;37.67;22.45;;;;;;;;;;5069109;28;20051;-73
2023/10/21 01:03:06;;;;;;;36.58;23.08;;;;;;;;;;5051202;28;20028;-73
2023/10/21 01:05:31;;;;;;;38.33;22.58;;;;;;;;;;5052287;28;20052;-72
2023/10/21 01:08:00;;;;;;;35.33;22.35;;;;;;;;;;5052931;28;20066;-73
2023/10/21 01:10:25;;;;;;;39.20;22.02;;;;;;;;;;5070534;28;20038;-73
2023/10/21 01:12:51;;;;;;;34.00;20.80;;;;;;;;;;5052147;28;20020;-74
2023/10/21 01:15:17;;;;;;;35.75;22.45;;;;;;;;;;5069304;28;20261;-72
2023/10/21 01:17:49;;;;;;;37.00;21.60;;;;;;;;;;5070648;28;20040;-73
2023/10/21 01:20:16;;;;;;;44.28;21.17;;;;;;;;;;5070426;28;20150;-73
2023/10/21 01:22:43;;;;;;;32.05;19.83;;;;;;;;;;5064708;28;20028;-73
2023/10/21 01:25:09;;;;;;;37.47;20.55;;;;;;;;;;5051913;28;20486;-73
2023/10/21 01:27:34;;;;;;;34.67;21.73;;;;;;;;;;5068312;28;20105;-73
2023/10/21 01:30:00;;;;;;;34.35;20.50;;;;;;;;;;5051996;28;20385;-72
2023/10/21 01:32:25;;;;;;;31.02;18.85;;;;;;;;;;5070408;28;20426;-73
2023/10/21 01:34:51;;;;;;;34.83;20.98;;;;;;;;;;5052153;28;20491;-73
2023/10/21 01:37:17;;;;;;;36.63;20.27;;;;;;;;;;5065514;28;20036;-73
2023/10/21 01:39:43;;;;;;;34.05;20.55;;;;;;;;;;5052443;28;20024;-73
2023/10/21 01:42:09;;;;;;;32.47;20.05;;;;;;;;;;5070273;28;20488;-73
2023/10/21 01:44:35;;;;;;;29.73;19.63;;;;;;;;;;5070017;28;20039;-73
2023/10/21 01:47:01;;;;;;;38.13;21.52;;;;;;;;;;5042697;28;20036;-73
2023/10/21 01:49:26;;;;;;;38.03;20.95;;;;;;;;;;5052360;28;20572;-73
2023/10/21 01:51:52;;;;;;;35.55;20.52;;;;;;;;;;5051993;28;20111;-73
2023/10/21 01:54:17;;;;;;;35.67;20.65;;;;;;;;;;5052467;28;20024;-73
2023/10/21 01:56:43;;;;;;;41.80;23.05;;;;;;;;;;5069887;28;20154;-72
2023/10/21 01:59:08;;;;;;;37.95;21.35;;;;;;;;;;5051737;28;20055;-72
2023/10/21 02:01:34;;;;;;;36.55;20.77;;;;;;;;;;5035096;28;20106;-73
2023/10/21 02:04:00;;;;;;;36.00;21.98;;;;;;;;;;5070014;28;20032;-72
2023/10/21 02:06:26;;;;;;;37.40;21.98;;;;;;;;;;5052105;28;20542;-73
2023/10/21 02:08:53;;;;;;;41.20;21.67;;;;;;;;;;5069945;28;20493;-73
2023/10/21 02:11:24;;;;;;;37.55;21.92;;;;;;;;;;5082003;28;20024;-72
2023/10/21 02:13:50;;;;;;;35.55;21.20;;;;;;;;;;5065991;28;20382;-73
2023/10/21 02:16:16;;;;;;;34.88;21.58;;;;;;;;;;5051207;28;20056;-73
2023/10/21 02:18:41;;;;;;;39.30;20.75;;;;;;;;;;5049882;28;20021;-73
2023/10/21 02:21:07;;;;;;;43.30;21.83;;;;;;;;;;5031977;28;20036;-73
2023/10/21 02:23:33;;;;;;;39.05;21.35;;;;;;;;;;5045350;28;20032;-73
2023/10/21 02:26:04;;;;;;;34.95;20.90;;;;;;;;;;5048764;28;20033;-72
2023/10/21 02:28:30;;;;;;;34.47;20.15;;;;;;;;;;5048921;28;20029;-72
2023/10/21 02:30:56;;;;;;;37.00;20.85;;;;;;;;;;5049904;28;20024;-73
2023/10/21 02:33:25;;;;;;;34.97;21.55;;;;;;;;;;5049868;28;20059;-73
2023/10/21 02:35:52;;;;;;;37.60;20.27;;;;;;;;;;5050149;28;20069;-73
2023/10/21 02:38:18;;;;;;;37.78;20.48;;;;;;;;;;5033368;28;20417;-72
2023/10/21 02:40:44;;;;;;;35.00;21.10;;;;;;;;;;5032630;28;20060;-72
2023/10/21 02:43:09;;;;;;;36.63;20.88;;;;;;;;;;5048699;28;20112;-71
2023/10/21 02:45:35;;;;;;;38.58;20.45;;;;;;;;;;5049532;28;20052;-73
2023/10/21 02:48:01;;;;;;;39.15;22.23;;;;;;;;;;5032797;28;20041;-73
2023/10/21 02:50:26;;;;;;;37.55;21.70;;;;;;;;;;5051079;28;20511;-73
2023/10/21 02:52:52;;;;;;;33.85;20.05;;;;;;;;;;5050085;28;20039;-72
2023/10/21 02:55:18;;;;;;;32.50;19.67;;;;;;;;;;5049901;28;20037;-73
2023/10/21 02:57:44;;;;;;;38.47;19.50;;;;;;;;;;5049729;28;20028;-73
2023/10/21 03:00:15;;;;;;;33.60;21.10;;;;;;;;;;5037827;28;20549;-72
2023/10/21 03:02:42;;;;;;;36.38;20.67;;;;;;;;;;5053648;28;20024;-73
2023/10/21 03:05:08;;;;;;;31.23;18.27;;;;;;;;;;5053800;28;20045;-73
2023/10/21 03:07:33;;;;;;;36.70;20.52;;;;;;;;;;5052047;28;20060;-73
2023/10/21 03:10:00;;;;;;;32.67;18.60;;;;;;;;;;5035406;28;20634;-74
2023/10/21 03:12:26;;;;;;;33.65;19.88;;;;;;;;;;5035896;28;20365;-74
2023/10/21 03:14:52;;;;;;;30.95;18.85;;;;;;;;;;5036514;28;20052;-74
2023/10/21 03:17:19;;;;;;;39.65;20.45;;;;;;;;;;5055691;28;20326;-75
2023/10/21 03:19:45;;;;;;;37.20;20.52;;;;;;;;;;5072314;28;20040;-74
2023/10/21 03:22:10;;;;;;;40.08;21.45;;;;;;;;;;5071036;28;20028;-74
2023/10/21 03:24:36;;;;;;;34.33;20.15;;;;;;;;;;5054805;28;20035;-74
2023/10/21 03:27:02;;;;;;;36.47;21.45;;;;;;;;;;5073243;28;20457;-74
2023/10/21 03:29:28;;;;;;;48.22;25.83;;;;;;;;;;5054802;28;20088;-74
2023/10/21 03:31:53;;;;;;;50.88;25.58;;;;;;;;;;5071686;28;20028;-73
2023/10/21 03:34:19;;;;;;;41.85;22.77;;;;;;;;;;5046551;28;20031;-74
2023/10/21 03:36:45;;;;;;;41.63;20.70;;;;;;;;;;5069930;28;20032;-73
2023/10/21 03:39:11;;;;;;;51.70;21.58;;;;;;;;;;5055716;28;20056;-76
2023/10/21 03:41:37;;;;;;;42.60;21.08;;;;;;;;;;5055326;28;20024;-75
2023/10/21 03:44:03;;;;;;;37.33;20.08;;;;;;;;;;5089752;28;20039;-75
2023/10/21 03:46:30;;;;;;;38.97;21.35;;;;;;;;;;5072494;28;20028;-75
2023/10/21 03:48:56;;;;;;;36.05;20.42;;;;;;;;;;5055210;28;20119;-74
2023/10/21 03:51:22;;;;;;;33.60;19.60;;;;;;;;;;5071641;28;20530;-74
2023/10/21 03:53:48;;;;;;;35.45;20.83;;;;;;;;;;5053979;28;20020;-74
2023/10/21 03:56:14;;;;;;;34.88;19.50;;;;;;;;;;5072580;28;20077;-75
2023/10/21 03:58:41;;;;;;;40.95;20.92;;;;;;;;;;5070557;28;20050;-74
2023/10/21 04:01:08;;;;;;;31.95;18.42;;;;;;;;;;5071924;28;20540;-74
2023/10/21 04:03:35;;;;;;;30.58;17.90;;;;;;;;;;5053932;28;20025;-74
2023/10/21 04:06:00;;;;;;;30.83;18.90;;;;;;;;;;5054029;28;20035;-75
2023/10/21 04:08:27;;;;;;;34.15;19.42;;;;;;;;;;5054016;28;20393;-73
2023/10/21 04:10:54;;;;;;;32.38;18.40;;;;;;;;;;5068339;28;20021;-74
2023/10/21 04:13:20;;;;;;;34.63;18.73;;;;;;;;;;5070921;28;20035;-74
2023/10/21 04:15:45;;;;;;;33.10;19.15;;;;;;;;;;5072126;28;20041;-73
2023/10/21 04:18:11;;;;;;;34.03;19.33;;;;;;;;;;5072512;28;20028;-75
2023/10/21 04:20:38;;;;;;;32.45;19.00;;;;;;;;;;5070744;28;20120;-74
2023/10/21 04:23:03;;;;;;;30.75;19.40;;;;;;;;;;5071281;28;20034;-75
2023/10/21 04:25:29;;;;;;;32.45;18.80;;;;;;;;;;5071593;28;20044;-76
2023/10/21 04:27:58;;;;;;;32.55;17.33;;;;;;;;;;5053573;28;20032;-75
2023/10/21 04:30:25;;;;;;;30.45;17.02;;;;;;;;;;5055124;28;20048;-74
2023/10/21 04:32:51;;;;;;;29.90;18.33;;;;;;;;;;5054547;28;20046;-75
2023/10/21 04:35:17;;;;;;;30.90;18.50;;;;;;;;;;5050384;28;20481;-75
2023/10/21 04:37:43;;;;;;;33.05;18.25;;;;;;;;;;5066869;28;20025;-74
2023/10/21 04:40:09;;;;;;;33.25;18.27;;;;;;;;;;5087240;28;20448;-74
2023/10/21 04:42:36;;;;;;;30.88;16.80;;;;;;;;;;5053995;28;20020;-74
2023/10/21 04:45:01;;;;;;;31.45;18.92;;;;;;;;;;5071320;28;20119;-74
2023/10/21 04:47:27;;;;;;;28.83;16.90;;;;;;;;;;5072106;28;20120;-75
2023/10/21 04:49:53;;;;;;;31.25;16.60;;;;;;;;;;5070699;28;20105;-75
2023/10/21 04:52:19;;;;;;;24.98;16.70;;;;;;;;;;5070504;28;20358;-74
2023/10/21 04:54:44;;;;;;;27.42;16.42;;;;;;;;;;5071170;28;20024;-75
2023/10/21 04:57:10;;;;;;;35.83;17.77;;;;;;;;;;5071231;28;20150;-75
2023/10/21 04:59:38;;;;;;;33.60;17.65;;;;;;;;;;5067115;28;20377;-74
2023/10/21 05:02:04;;;;;;;27.58;17.15;;;;;;;;;;5071422;28;20111;-75
2023/10/21 05:04:30;;;;;;;34.70;19.02;;;;;;;;;;5083143;28;20148;-75
2023/10/21 05:06:56;;;;;;;29.23;18.08;;;;;;;;;;5068565;28;20492;-74
2023/10/21 05:09:21;;;;;;;30.60;17.27;;;;;;;;;;5052542;28;20032;-74
2023/10/21 05:11:47;;;;;;;28.98;16.98;;;;;;;;;;5067874;28;20027;-74
2023/10/21 05:14:12;;;;;;;33.38;17.45;;;;;;;;;;5070360;28;20023;-75
2023/10/21 05:16:38;;;;;;;34.30;17.92;;;;;;;;;;5069094;28;20028;-74
2023/10/21 05:19:04;;;;;;;33.10;18.13;;;;;;;;;;5052028;28;20024;-75
2023/10/21 05:21:31;;;;;;;32.35;18.48;;;;;;;;;;5067917;28;20039;-75
2023/10/21 05:23:57;;;;;;;32.47;17.13;;;;;;;;;;5066647;28;20044;-74
2023/10/21 05:26:22;;;;;;;35.47;19.92;;;;;;;;;;5068681;28;20020;-74
2023/10/21 05:28:48;;;;;;;366.58;179.15;;;;;;;;;;5051828;28;20037;-74
2023/10/21 05:31:14;;;;;;;133.77;64.82;;;;;;;;;;5070754;28;20028;-74
2023/10/21 05:33:40;;;;;;;64.60;33.83;;;;;;;;;;5065831;28;20021;-73
2023/10/21 05:36:06;;;;;;;68.95;31.73;;;;;;;;;;5070238;28;20032;-74
2023/10/21 05:38:32;;;;;;;55.75;26.35;;;;;;;;;;5069146;28;20131;-74
2023/10/21 05:40:58;;;;;;;50.28;24.98;;;;;;;;;;5068797;28;20458;-74
2023/10/21 05:43:24;;;;;;;44.83;25.30;;;;;;;;;;5068651;28;20081;-75
2023/10/21 05:45:49;;;;;;;38.58;22.95;;;;;;;;;;5070111;28;20032;-74
2023/10/21 05:48:15;;;;;;;39.10;21.00;;;;;;;;;;5068978;28;20028;-74
2023/10/21 05:50:41;;;;;;;34.33;21.35;;;;;;;;;;5068979;28;20082;-75
2023/10/21 05:53:06;;;;;;;35.92;20.38;;;;;;;;;;5068888;28;20061;-75
2023/10/21 05:55:32;;;;;;;39.88;21.95;;;;;;;;;;5070518;28;20052;-75
2023/10/21 05:57:58;;;;;;;36.78;18.63;;;;;;;;;;5066841;28;20028;-74
2023/10/21 06:00:23;;;;;;;37.72;18.42;;;;;;;;;;5052057;28;20032;-74
2023/10/21 06:02:49;;;;;;;40.45;20.73;;;;;;;;;;5051838;28;20033;-74
2023/10/21 06:05:15;;;;;;;37.70;18.23;;;;;;;;;;5070200;28;20028;-74
2023/10/21 06:07:41;;;;;;;27.05;17.10;;;;;;;;;;5051989;28;20024;-75
2023/10/21 06:10:08;;;;;;;31.00;18.77;;;;;;;;;;5068894;28;20036;-75
2023/10/21 06:12:34;;;;;;;32.42;17.90;;;;;;;;;;5068571;28;20021;-75
2023/10/21 06:15:00;;;;;;;34.88;19.48;;;;;;;;;;5068232;28;20048;-75
2023/10/21 06:17:26;;;;;;;36.25;18.45;;;;;;;;;;5068479;28;20689;-75
2023/10/21 06:19:52;;;;;;;32.83;17.27;;;;;;;;;;5068211;28;20028;-75
2023/10/21 06:22:18;;;;;;;26.88;16.33;;;;;;;;;;5065079;28;20658;-75
2023/10/21 06:24:44;;;;;;;29.25;17.02;;;;;;;;;;5066540;28;20082;-75
2023/10/21 06:27:11;;;;;;;29.42;16.02;;;;;;;;;;5068399;28;20382;-75
2023/10/21 06:29:36;;;;;;;33.78;16.45;;;;;;;;;;5051799;28;20063;-74
2023/10/21 06:32:06;;;;;;;26.80;14.93;;;;;;;;;;5072169;28;20132;-75
2023/10/21 06:34:33;;;;;;;24.67;15.63;;;;;;;;;;5052552;28;20036;-74
2023/10/21 06:36:59;;;;;;;28.40;16.65;;;;;;;;;;5071183;28;20028;-76
2023/10/21 06:39:25;;;;;;;26.65;15.43;;;;;;;;;;5056319;28;20028;-75
2023/10/21 06:41:51;;;;;;;29.08;16.80;;;;;;;;;;5072849;28;20640;-74
2023/10/21 06:44:17;;;;;;;28.15;16.75;;;;;;;;;;5075638;28;20021;-74
2023/10/21 06:46:43;;;;;;;28.92;16.25;;;;;;;;;;5058685;28;20082;-75
2023/10/21 06:49:09;;;;;;;24.00;15.38;;;;;;;;;;5078035;28;20036;-75
2023/10/21 06:51:36;;;;;;;30.15;17.73;;;;;;;;;;5076015;28;20026;-75
2023/10/21 06:54:02;;;;;;;28.92;17.10;;;;;;;;;;5073900;28;20020;-75
2023/10/21 06:56:28;;;;;;;23.17;15.85;;;;;;;;;;5074599;28;20029;-75
2023/10/21 06:58:54;;;;;;;36.67;18.38;;;;;;;;;;5073646;28;20044;-75
2023/10/21 07:01:19;;;;;;;30.13;16.48;;;;;;;;;;5073978;28;20024;-75
2023/10/21 07:03:45;;;;;;;25.30;14.93;;;;;;;;;;5072318;28;20067;-74
2023/10/21 07:06:11;;;;;;;27.73;15.23;;;;;;;;;;5071853;28;20024;-75
2023/10/21 07:08:39;;;;;;;26.83;15.30;;;;;;;;;;5071762;28;20032;-75
2023/10/21 07:11:04;;;;;;;24.05;14.43;;;;;;;;;;5073744;28;20028;-75
2023/10/21 07:13:30;;;;;;;22.45;13.50;;;;;;;;;;5074349;28;20625;-74
2023/10/21 07:15:55;;;;;;;25.60;13.88;;;;;;;;;;5059769;28;20118;-74
2023/10/21 07:18:21;;;;;;;23.88;15.02;;;;;;;;;;5062618;28;20025;-75
2023/10/21 07:20:55;;;;;;;24.42;15.25;;;;;;;;;;5058863;28;20029;-74
2023/10/21 07:23:21;;;;;;;29.08;16.00;;;;;;;;;;5037218;28;20033;-75
2023/10/21 07:25:46;;;;;;;22.88;14.43;;;;;;;;;;5035426;28;20665;-75
2023/10/21 07:28:12;;;;;;;27.52;15.27;;;;;;;;;;5053484;28;20179;-75
2023/10/21 07:30:37;;;;;;;24.60;14.43;;;;;;;;;;5068653;28;20029;-75
2023/10/21 07:33:03;;;;;;;22.48;13.63;;;;;;;;;;5034142;28;20067;-75
2023/10/21 07:35:29;;;;;;;22.67;13.45;;;;;;;;;;5051374;28;20059;-76
2023/10/21 07:37:54;;;;;;;20.65;13.02;;;;;;;;;;5034373;28;20032;-76
2023/10/21 07:40:23;;;;;;;19.50;11.63;;;;;;;;;;5034675;28;20067;-75
2023/10/21 07:42:49;;;;;;;17.13;12.02;;;;;;;;;;5051186;28;20108;-74
2023/10/21 07:45:15;;;;;;;20.15;13.02;;;;;;;;;;5052345;28;20036;-75
2023/10/21 07:47:41;;;;;;;21.52;12.85;;;;;;;;;;5034712;28;20406;-73
2023/10/21 07:50:08;;;;;;;20.00;12.48;;;;;;;;;;5034694;28;20028;-73
2023/10/21 07:52:35;;;;;;;18.08;12.23;;;;;;;;;;5035202;28;20048;-72
2023/10/21 07:55:01;;;;;;;16.55;11.70;;;;;;;;;;5051293;28;20040;-74
2023/10/21 07:57:27;;;;;;;21.42;13.35;;;;;;;;;;5035211;28;20025;-74
2023/10/21 07:59:55;;;;;;;15.43;11.30;;;;;;;;;;5053182;28;20025;-74
2023/10/21 08:02:21;;;;;;;16.38;10.73;;;;;;;;;;5035618;28;20031;-74
2023/10/21 08:04:47;;;;;;;16.38;12.07;;;;;;;;;;5051470;28;20052;-73
2023/10/21 08:07:13;;;;;;;17.55;10.90;;;;;;;;;;5050948;28;20126;-74
2023/10/21 08:09:39;;;;;;;16.15;11.07;;;;;;;;;;5033490;28;20036;-74
2023/10/21 08:12:08;;;;;;;16.83;10.68;;;;;;;;;;5033460;28;20021;-74
2023/10/21 08:14:36;;;;;;;15.65;10.10;;;;;;;;;;5032753;28;20524;-73
2023/10/21 08:17:04;;;;;;;17.65;10.40;;;;;;;;;;5049233;28;20484;-74
2023/10/21 08:19:31;;;;;;;15.65;10.52;;;;;;;;;;5033662;28;20056;-73
2023/10/21 08:21:58;;;;;;;18.00;11.00;;;;;;;;;;5049727;28;20119;-74
2023/10/21 08:24:24;;;;;;;18.67;10.65;;;;;;;;;;5032793;28;20029;-74
2023/10/21 08:26:53;;;;;;;16.30;10.35;;;;;;;;;;5032743;28;20391;-76
2023/10/21 08:29:20;;;;;;;15.45;10.63;;;;;;;;;;5051370;28;20021;-73
2023/10/21 08:31:47;;;;;;;16.33;10.10;;;;;;;;;;5049786;28;20021;-75
2023/10/21 08:34:17;;;;;;;14.40;9.20;;;;;;;;;;5029511;28;20056;-73
2023/10/21 08:36:42;;;;;;;15.27;9.10;;;;;;;;;;5047449;28;20116;-75
2023/10/21 08:39:08;;;;;;;11.40;8.05;;;;;;;;;;5049654;28;20120;-75
2023/10/21 08:41:38;;;;;;;18.40;10.05;;;;;;;;;;5049522;28;20043;-74
2023/10/21 08:44:05;;;;;;;17.10;9.50;;;;;;;;;;5050768;28;20025;-75
2023/10/21 08:46:35;;;;;;;12.88;8.50;;;;;;;;;;5045832;28;20033;-75
2023/10/21 08:49:05;;;;;;;10.82;8.07;;;;;;;;;;5048017;28;20036;-74
2023/10/21 08:51:33;;;;;;;11.80;8.13;;;;;;;;;;5050787;28;20036;-74
2023/10/21 08:54:03;;;;;;;13.85;8.02;;;;;;;;;;5050363;28;20017;-76
2023/10/21 08:56:33;;;;;;;14.93;8.35;;;;;;;;;;5049977;28;20028;-74
2023/10/21 08:59:00;;;;;;;15.07;8.60;;;;;;;;;;5031413;28;20026;-75
2023/10/21 09:01:26;;;;;;;14.60;8.20;;;;;;;;;;5033031;28;20397;-76
2023/10/21 09:03:52;;;;;;;23.63;11.60;;;;;;;;;;5049501;28;20047;-75
2023/10/21 09:06:18;;;;;;;17.10;8.95;;;;;;;;;;5050120;28;20070;-75
2023/10/21 09:08:47;;;;;;;7.47;5.55;;;;;;;;;;5050440;28;20040;-75
2023/10/21 09:11:24;;;;;;;9.68;4.82;;;;;;;;;;5028921;28;20107;-75
2023/10/21 09:13:52;;;;;;;8.00;4.85;;;;;;;;;;5030679;28;20116;-76
2023/10/21 09:16:25;;;;;;;4.40;2.95;;;;;;;;;;5056446;28;20131;-77
2023/10/21 09:19:03;;;;;;;3.75;2.97;;;;;;;;;;5073193;28;20123;-77
2023/10/21 09:21:37;;;;;;;4.65;3.35;;;;;;;;;;5074372;28;20110;-77
2023/10/21 09:24:20;;;;;;;6.22;2.67;;;;;;;;;;5056010;28;20024;-76
2023/10/21 09:26:47;;;;;;;3.80;3.22;;;;;;;;;;5058230;28;20025;-77
2023/10/21 09:29:18;;;;;;;4.97;2.83;;;;;;;;;;5087919;28;20092;-75
2023/10/21 09:31:52;;;;;;;3.88;3.45;;;;;;;;;;5087667;28;20032;-77
2023/10/21 09:34:29;;;;;;;3.08;1.98;;;;;;;;;;5060487;28;20024;-76
2023/10/21 09:37:03;;;;;;;2.67;1.85;;;;;;;;;;5077334;28;20362;-76
2023/10/21 09:39:34;;;;;;;3.17;1.85;;;;;;;;;;5068788;28;20032;-76
2023/10/21 09:42:04;;;;;;;1.38;0.60;;;;;;;;;;5069775;28;20029;-76
2023/10/21 09:44:30;;;;;;;1.40;0.70;;;;;;;;;;5069516;28;20040;-78
2023/10/21 09:46:57;;;;;;;3.42;0.95;;;;;;;;;;5062952;28;20029;-77
2023/10/21 09:49:24;;;;;;;5.25;2.40;;;;;;;;;;5061655;28;20037;-76
2023/10/21 09:51:54;;;;;;;0.68;0.68;;;;;;;;;;5066111;28;20028;-75
2023/10/21 09:54:40;;;;;;;1.63;0.82;;;;;;;;;;5068721;28;20029;-77
2023/10/21 09:57:12;;;;;;;3.92;1.65;;;;;;;;;;5049018;28;20354;-75
2023/10/21 09:59:39;;;;;;;5.13;1.25;;;;;;;;;;5066992;28;20028;-77
2023/10/21 10:02:06;;;;;;;0.40;0.40;;;;;;;;;;5071148;28;20040;-75
2023/10/21 10:04:34;;;;;;;2.47;0.77;;;;;;;;;;5068080;28;20024;-75
2023/10/21 10:07:05;;;;;;;0.60;0.40;;;;;;;;;;5068482;28;20047;-75
2023/10/21 10:09:35;;;;;;;2.28;0.80;;;;;;;;;;5087448;28;20024;-76
2023/10/21 10:12:06;;;;;;;1.27;0.60;;;;;;;;;;5072007;28;20138;-78
2023/10/21 10:14:33;;;;;;;;;;;;;;;;;;5072469;28;20119;-76
2023/10/21 10:17:00;;;;;;;2.72;1.23;;;;;;;;;;5088008;28;19912;-75
2023/10/21 10:19:42;;;;;;;2.63;0.50;;;;;;;;;;5082921;28;20035;-76
2023/10/21 10:22:31;;;;;;;1.10;0.63;;;;;;;;;;5050952;28;20032;-77
2023/10/21 10:25:10;;;;;;;1.08;0.43;;;;;;;;;;5068457;28;20055;-76
2023/10/21 10:27:40;;;;;;;0.60;0.50;;;;;;;;;;5067667;28;20651;-76
2023/10/21 10:30:09;;;;;;;1.38;0.30;;;;;;;;;;5050768;28;20078;-75
2023/10/21 10:32:43;;;;;;;1.30;0.43;;;;;;;;;;5050945;28;20036;-76
2023/10/21 10:35:09;;;;;;;0.90;0.55;;;;;;;;;;5051335;28;20392;-76
2023/10/21 10:37:37;;;;;;;0.30;0.30;;;;;;;;;;5034525;28;20032;-77
2023/10/21 10:40:34;;;;;;;1.02;0.40;;;;;;;;;;5050651;28;20020;-75
2023/10/21 10:43:00;;;;;;;1.67;0.60;;;;;;;;;;5066753;28;20032;-75
2023/10/21 10:45:25;;;;;;;0.82;0.68;;;;;;;;;;5072621;28;20153;-77
2023/10/21 10:48:02;;;;;;;0.45;0.40;;;;;;;;;;5071264;28;20032;-76
2023/10/21 10:50:36;;;;;;;4.13;0.40;;;;;;;;;;5036316;28;20043;-77
2023/10/21 10:53:28;;;;;;;1.33;0.30;;;;;;;;;;5058781;28;20059;-77
2023/10/21 10:55:57;;;;;;;2.97;0.38;;;;;;;;;;5077485;28;20131;-77
2023/10/21 10:58:26;;;;;;;0.95;0.47;;;;;;;;;;5056075;28;20369;-77
2023/10/21 11:00:52;;;;;;;1.38;0.50;;;;;;;;;;5078556;28;20025;-76
2023/10/21 11:03:27;;;;;;;0.52;0.30;;;;;;;;;;5079914;28;20184;-75
2023/10/21 11:05:57;;;;;;;0.80;0.30;;;;;;;;;;5096165;28;20119;-75
2023/10/21 11:08:23;;;;;;;0.43;0.30;;;;;;;;;;5073645;28;20036;-76
2023/10/21 11:10:53;;;;;;;0.73;0.32;;;;;;;;;;5053700;28;20025;-76
2023/10/21 11:13:21;;;;;;;0.30;0.30;;;;;;;;;;5068935;28;20020;-76
2023/10/21 11:15:55;;;;;;;0.88;0.25;;;;;;;;;;5051795;28;20044;-75
2023/10/21 11:18:21;;;;;;;0.20;0.20;;;;;;;;;;5068688;28;20028;-75
2023/10/21 11:20:51;;;;;;;0.20;0.20;;;;;;;;;;5072729;28;20028;-75
2023/10/21 11:23:18;;;;;;;0.22;0.20;;;;;;;;;;5071928;28;20158;-76
2023/10/21 11:25:50;;;;;;;0.55;0.38;;;;;;;;;;5072476;28;20035;-76
2023/10/21 11:28:16;;;;;;;1.33;0.30;;;;;;;;;;5070798;28;20112;-77
2023/10/21 11:30:44;;;;;;;0.73;0.30;;;;;;;;;;5071258;28;20024;-77
2023/10/21 11:33:12;;;;;;;0.35;0.30;;;;;;;;;;5070840;28;20051;-77
2023/10/21 11:35:43;;;;;;;0.80;0.43;;;;;;;;;;5052829;28;20025;-74
2023/10/21 11:38:12;;;;;;;1.77;0.50;;;;;;;;;;5053872;28;20029;-75
2023/10/21 11:40:38;;;;;;;0.30;0.20;;;;;;;;;;5071264;28;20056;-74
2023/10/21 11:43:07;;;;;;;0.40;0.40;;;;;;;;;;5070687;28;20840;-75
2023/10/21 11:45:32;;;;;;;0.45;0.35;;;;;;;;;;5072851;28;20036;-74
2023/10/21 11:48:02;;;;;;;1.75;0.85;;;;;;;;;;5068979;28;20040;-74
2023/10/21 11:50:34;;;;;;;0.65;0.30;;;;;;;;;;5068565;28;20099;-75
2023/10/21 11:53:02;;;;;;;0.75;0.30;;;;;;;;;;5085065;28;20077;-74
2023/10/21 12:38:41;;;;;;;0.40;0.40;;;;;;;;;;5071499;28;20113;-74
2023/10/21 12:43:39;;;;;;;;;;;;;;;;;;5071455;28;20020;-74
2023/10/21 12:48:57;;;;;;;2.30;0.47;;;;;;;;;;5059461;28;20099;-75
2023/10/21 12:51:26;;;;;;;1.08;0.57;;;;;;;;;;5069534;28;20032;-74
2023/10/21 12:53:52;;;;;;;4.72;2.90;;;;;;;;;;5052793;28;20457;-73
2023/10/21 12:56:18;;;;;;;0.52;0.50;;;;;;;;;;5072784;28;20032;-75
2023/10/21 12:58:44;;;;;;;1.50;0.70;;;;;;;;;;5071922;28;20074;-74
2023/10/21 13:01:14;;;;;;;2.10;0.65;;;;;;;;;;5072236;28;20074;-75
2023/10/21 13:03:49;;;;;;;0.38;0.35;;;;;;;;;;5072702;28;20107;-73
2023/10/21 13:06:15;;;;;;;1.45;0.45;;;;;;;;;;5071740;28;20101;-73
2023/10/21 13:08:41;;;;;;;1.75;0.75;;;;;;;;;;5069616;28;20044;-74
2023/10/21 13:11:08;;;;;;;0.77;0.45;;;;;;;;;;5052659;28;20123;-74
2023/10/21 13:13:37;;;;;;;6.80;2.03;;;;;;;;;;5070379;28;20173;-74
2023/10/21 13:16:07;;;;;;;2.75;2.30;;;;;;;;;;5069010;28;20067;-75
2023/10/21 13:18:33;;;;;;;1.38;0.60;;;;;;;;;;5052432;28;20024;-75
2023/10/21 13:21:00;;;;;;;0.30;0.30;;;;;;;;;;5051806;28;20353;-74
2023/10/21 13:23:25;;;;;;;0.90;0.32;;;;;;;;;;5034676;28;20033;-75
2023/10/21 13:25:51;;;;;;;3.58;0.90;;;;;;;;;;5068304;28;20025;-75
2023/10/21 13:28:17;;;;;;;0.90;0.52;;;;;;;;;;5068046;28;20032;-75
2023/10/21 13:30:46;;;;;;;2.22;0.63;;;;;;;;;;5068753;28;20115;-75
2023/10/21 13:33:14;;;;;;;2.83;0.77;;;;;;;;;;5069779;28;20041;-74
2023/10/21 13:35:40;;;;;;;5.35;1.35;;;;;;;;;;5069469;28;20067;-75
2023/10/21 13:38:06;;;;;;;1.67;1.00;;;;;;;;;;5035510;28;20476;-74
2023/10/21 13:40:31;;;;;;;2.35;0.70;;;;;;;;;;5051032;28;20052;-74
2023/10/21 13:42:57;;;;;;;3.38;0.90;;;;;;;;;;5069410;28;20026;-74
2023/10/21 13:45:26;;;;;;;2.08;0.73;;;;;;;;;;5068065;28;20020;-74
2023/10/21 13:47:53;;;;;;;6.00;1.25;;;;;;;;;;5069367;28;20024;-75
2023/10/21 13:50:23;;;;;;;1.55;0.50;;;;;;;;;;5067498;28;20031;-75
2023/10/21 13:52:52;;;;;;;2.73;0.70;;;;;;;;;;5046084;28;20112;-75
2023/10/21 13:55:18;;;;;;;7.35;1.23;;;;;;;;;;5051206;28;20117;-74
2023/10/21 13:57:47;;;;;;;1.27;0.50;;;;;;;;;;5050909;28;20067;-75
2023/10/21 14:03:08;;;;;;;8.45;1.30;;;;;;;;;;5054085;28;20112;-76
2023/10/21 14:05:45;;;;;;;1.27;0.60;;;;;;;;;;5067796;28;20020;-74
2023/10/21 14:08:14;;;;;;;1.13;0.80;;;;;;;;;;5069362;28;20033;-75
2023/10/21 14:10:45;;;;;;;1.08;0.50;;;;;;;;;;5050997;28;20016;-75
2023/10/21 14:13:23;;;;;;;1.00;0.55;;;;;;;;;;5058458;28;20273;-74
2023/10/21 14:15:51;;;;;;;0.77;0.45;;;;;;;;;;5047816;28;20175;-74
2023/10/21 14:18:17;;;;;;;9.73;0.68;;;;;;;;;;5067497;28;20036;-75
2023/10/21 14:20:45;;;;;;;1.25;0.50;;;;;;;;;;5067909;28;20028;-74
2023/10/21 14:23:14;;;;;;;2.13;0.88;;;;;;;;;;5069125;28;20032;-75
2023/10/21 14:25:40;;;;;;;2.28;1.00;;;;;;;;;;5069194;28;20020;-75
2023/10/21 14:28:13;;;;;;;3.72;1.05;;;;;;;;;;5067593;28;20032;-76
2023/10/21 14:30:41;;;;;;;6.82;1.70;;;;;;;;;;5069211;28;20080;-74
2023/10/21 14:33:11;;;;;;;2.10;0.80;;;;;;;;;;5070314;28;20040;-76
2023/10/21 14:35:41;;;;;;;3.25;1.80;;;;;;;;;;5060946;28;20024;-75
2023/10/21 14:38:16;;;;;;;2.88;1.77;;;;;;;;;;5067397;28;20028;-76
2023/10/21 14:40:43;;;;;;;2.92;1.50;;;;;;;;;;5051429;28;20119;-76
2023/10/21 14:43:10;;;;;;;6.90;1.30;;;;;;;;;;5068216;28;20090;-75
2023/10/21 14:45:37;;;;;;;7.10;2.25;;;;;;;;;;5067845;28;20385;-76
2023/10/21 14:48:07;;;;;;;4.72;1.80;;;;;;;;;;5069160;28;20110;-74
2023/10/21 14:50:33;;;;;;;2.28;1.35;;;;;;;;;;5067359;28;20037;-74
2023/10/21 14:53:01;;;;;;;4.68;1.65;;;;;;;;;;5086671;28;20510;-75
2023/10/21 14:55:26;;;;;;;5.38;2.22;;;;;;;;;;5088596;28;20036;-74
2023/10/21 14:57:53;;;;;;;8.95;3.25;;;;;;;;;;5071599;28;20024;-74
2023/10/21 15:00:22;;;;;;;2.67;1.58;;;;;;;;;;5072328;28;20111;-75
2023/10/21 15:02:52;;;;;;;4.50;2.03;;;;;;;;;;5075209;28;20033;-75
2023/10/21 15:05:18;;;;;;;4.60;1.58;;;;;;;;;;5071977;28;20020;-75
2023/10/21 15:07:45;;;;;;;2.08;1.17;;;;;;;;;;5072131;28;20111;-75
2023/10/21 15:10:15;;;;;;;11.40;2.33;;;;;;;;;;5072226;28;20027;-74
2023/10/21 15:12:45;;;;;;;3.95;1.80;;;;;;;;;;5072093;28;20024;-75
2023/10/21 15:15:12;;;;;;;3.05;2.00;;;;;;;;;;5062311;28;20077;-74
2023/10/21 15:17:40;;;;;;;8.38;2.80;;;;;;;;;;5071463;28;20021;-75
2023/10/21 15:20:10;;;;;;;10.85;3.70;;;;;;;;;;5057550;28;20032;-74
2023/10/21 15:22:36;;;;;;;9.32;3.10;;;;;;;;;;5059535;28;20052;-73